sensor_id;sensor_type;location;lat;lon;timestamp;temperature;humidity
24250;DHT22;12379;49.820;8.648;2023-12-04T00:00:01;-2.60;99.90
24250;DHT22;12379;49.820;8.648;2023-12-04T00:02:28;-2.70;99.90
24250;DHT22;12379;49.820;8.648;2023-12-04T00:04:53;-2.60;99.90
24250;DHT22;12379;49.820;8.648;2023-12-04T00:07:19;-2.70;99.90
24250;DHT22;12379;49.820;8.648;2023-12-04T00:09:44;-2.60;99.90
24250;DHT22;12379;49.820;8.648;2023-12-04T00:12:10;-2.60;99.90
24250;DHT22;12379;49.820;8.648;2023-12-04T00:14:35;-2.70;99.90
24250;DHT22;12379;49.820;8.648;2023-12-04T00:17:01;-2.60;99.90
24250;DHT22;12379;49.820;8.648;2023-12-04T00:19:27;-2.60;99.90
24250;DHT22;12379;49.820;8.648;2023-12-04T00:21:52;-2.60;99.90
24250;DHT22;12379;49.820;8.648;2023-12-04T00:24:18;-2.60;99.90
24250;DHT22;12379;49.820;8.648;2023-12-04T00:26:43;-2.70;99.90
24250;DHT22;12379;49.820;8.648;2023-12-04T00:29:09;-2.70;99.90
24250;DHT22;12379;49.820;8.648;2023-12-04T00:31:34;-2.70;99.90
24250;DHT22;12379;49.820;8.648;2023-12-04T00:34:00;-2.80;99.90
24250;DHT22;12379;49.820;8.648;2023-12-04T00:36:25;-2.80;99.90
24250;DHT22;12379;49.820;8.648;2023-12-04T00:38:51;-2.80;99.90
24250;DHT22;12379;49.820;8.648;2023-12-04T00:41:16;-2.80;99.90
24250;DHT22;12379;49.820;8.648;2023-12-04T00:43:42;-2.80;99.90
24250;DHT22;12379;49.820;8.648;2023-12-04T00:46:07;-2.80;99.90
24250;DHT22;12379;49.820;8.648;2023-12-04T00:48:33;-2.80;99.90
24250;DHT22;12379;49.820;8.648;2023-12-04T00:50:58;-2.90;99.90
24250;DHT22;12379;49.820;8.648;2023-12-04T00:53:24;-2.80;99.90
24250;DHT22;12379;49.820;8.648;2023-12-04T00:55:50;-2.90;99.90
24250;DHT22;12379;49.820;8.648;2023-12-04T00:58:15;-2.90;99.90
24250;DHT22;12379;49.820;8.648;2023-12-04T01:00:41;-2.90;99.90
24250;DHT22;12379;49.820;8.648;2023-12-04T01:03:06;-2.90;99.90
24250;DHT22;12379;49.820;8.648;2023-12-04T01:05:32;-2.90;99.90
24250;DHT22;12379;49.820;8.648;2023-12-04T01:07:57;-2.90;99.90
24250;DHT22;12379;49.820;8.648;2023-12-04T01:10:23;-2.90;99.90
24250;DHT22;12379;49.820;8.648;2023-12-04T01:12:49;-2.80;99.90
24250;DHT22;12379;49.820;8.648;2023-12-04T01:15:14;-2.80;99.90
24250;DHT22;12379;49.820;8.648;2023-12-04T01:17:40;-2.70;99.90
24250;DHT22;12379;49.820;8.648;2023-12-04T01:20:06;-2.70;99.90
24250;DHT22;12379;49.820;8.648;2023-12-04T01:22:32;-2.70;99.90
24250;DHT22;12379;49.820;8.648;2023-12-04T01:24:57;-2.70;99.90
24250;DHT22;12379;49.820;8.648;2023-12-04T01:27:23;-2.70;99.90
24250;DHT22;12379;49.820;8.648;2023-12-04T01:29:49;-2.80;99.90
24250;DHT22;12379;49.820;8.648;2023-12-04T01:32:17;-2.90;99.90
24250;DHT22;12379;49.820;8.648;2023-12-04T01:34:42;-2.90;99.90
24250;DHT22;12379;49.820;8.648;2023-12-04T01:37:08;-2.90;99.90
24250;DHT22;12379;49.820;8.648;2023-12-04T01:39:34;-2.90;99.90
24250;DHT22;12379;49.820;8.648;2023-12-04T01:41:59;-2.90;99.90
24250;DHT22;12379;49.820;8.648;2023-12-04T01:44:25;-3.00;99.90
24250;DHT22;12379;49.820;8.648;2023-12-04T01:46:51;-3.00;99.90
24250;DHT22;12379;49.820;8.648;2023-12-04T01:49:16;-3.00;99.90
24250;DHT22;12379;49.820;8.648;2023-12-04T01:51:43;-3.00;99.90
24250;DHT22;12379;49.820;8.648;2023-12-04T01:54:09;-3.00;99.90
24250;DHT22;12379;49.820;8.648;2023-12-04T01:56:36;-2.90;99.90
24250;DHT22;12379;49.820;8.648;2023-12-04T01:59:02;-2.90;99.90
24250;DHT22;12379;49.820;8.648;2023-12-04T02:01:28;-2.90;99.90
24250;DHT22;12379;49.820;8.648;2023-12-04T02:03:54;-3.00;99.90
24250;DHT22;12379;49.820;8.648;2023-12-04T02:06:21;-3.00;99.90
24250;DHT22;12379;49.820;8.648;2023-12-04T02:08:48;-3.00;99.90
24250;DHT22;12379;49.820;8.648;2023-12-04T02:11:14;-3.00;99.90
24250;DHT22;12379;49.820;8.648;2023-12-04T02:13:39;-3.00;99.90
24250;DHT22;12379;49.820;8.648;2023-12-04T02:16:09;-3.00;99.90
24250;DHT22;12379;49.820;8.648;2023-12-04T02:18:34;-3.00;99.90
24250;DHT22;12379;49.820;8.648;2023-12-04T02:21:01;-3.00;99.90
24250;DHT22;12379;49.820;8.648;2023-12-04T02:23:27;-3.00;99.90
24250;DHT22;12379;49.820;8.648;2023-12-04T02:25:58;-3.00;99.90
24250;DHT22;12379;49.820;8.648;2023-12-04T02:28:27;-3.00;99.90
24250;DHT22;12379;49.820;8.648;2023-12-04T02:30:54;-3.00;99.90
24250;DHT22;12379;49.820;8.648;2023-12-04T02:33:22;-3.00;99.90
24250;DHT22;12379;49.820;8.648;2023-12-04T02:35:51;-3.00;99.90
24250;DHT22;12379;49.820;8.648;2023-12-04T02:38:17;-3.00;99.90
24250;DHT22;12379;49.820;8.648;2023-12-04T02:40:43;-3.00;99.90
24250;DHT22;12379;49.820;8.648;2023-12-04T02:43:09;-3.00;99.90
24250;DHT22;12379;49.820;8.648;2023-12-04T02:45:34;-3.00;99.90
24250;DHT22;12379;49.820;8.648;2023-12-04T02:48:00;-3.00;99.90
24250;DHT22;12379;49.820;8.648;2023-12-04T02:50:25;-3.00;99.90
24250;DHT22;12379;49.820;8.648;2023-12-04T02:52:51;-3.10;99.90
24250;DHT22;12379;49.820;8.648;2023-12-04T02:55:16;-3.10;99.90
24250;DHT22;12379;49.820;8.648;2023-12-04T02:57:42;-3.10;99.90
24250;DHT22;12379;49.820;8.648;2023-12-04T03:00:08;-3.00;99.90
24250;DHT22;12379;49.820;8.648;2023-12-04T03:02:33;-3.00;99.90
24250;DHT22;12379;49.820;8.648;2023-12-04T03:04:59;-3.00;99.90
24250;DHT22;12379;49.820;8.648;2023-12-04T03:07:24;-3.10;99.90
24250;DHT22;12379;49.820;8.648;2023-12-04T03:09:51;-3.10;99.90
24250;DHT22;12379;49.820;8.648;2023-12-04T03:12:17;-3.10;99.90
24250;DHT22;12379;49.820;8.648;2023-12-04T03:14:43;-3.10;99.90
24250;DHT22;12379;49.820;8.648;2023-12-04T03:17:08;-3.10;99.90
24250;DHT22;12379;49.820;8.648;2023-12-04T03:19:34;-3.10;99.90
24250;DHT22;12379;49.820;8.648;2023-12-04T03:22:00;-3.10;99.90
24250;DHT22;12379;49.820;8.648;2023-12-04T03:24:26;-3.10;99.90
24250;DHT22;12379;49.820;8.648;2023-12-04T03:26:51;-3.10;99.90
24250;DHT22;12379;49.820;8.648;2023-12-04T03:29:17;-3.10;99.90
24250;DHT22;12379;49.820;8.648;2023-12-04T03:31:43;-3.10;99.90
24250;DHT22;12379;49.820;8.648;2023-12-04T03:34:09;-3.10;99.90
24250;DHT22;12379;49.820;8.648;2023-12-04T03:36:34;-3.10;99.90
24250;DHT22;12379;49.820;8.648;2023-12-04T03:39:00;-3.10;99.90
24250;DHT22;12379;49.820;8.648;2023-12-04T03:41:25;-3.10;99.90
24250;DHT22;12379;49.820;8.648;2023-12-04T03:43:51;-3.10;99.90
24250;DHT22;12379;49.820;8.648;2023-12-04T03:46:16;-3.10;99.90
24250;DHT22;12379;49.820;8.648;2023-12-04T03:48:42;-3.10;99.90
24250;DHT22;12379;49.820;8.648;2023-12-04T03:51:07;-3.00;99.90
24250;DHT22;12379;49.820;8.648;2023-12-04T03:53:33;-3.00;99.90
24250;DHT22;12379;49.820;8.648;2023-12-04T03:55:59;-3.00;99.90
24250;DHT22;12379;49.820;8.648;2023-12-04T03:58:25;-3.00;99.90
24250;DHT22;12379;49.820;8.648;2023-12-04T04:00:50;-3.00;99.90
24250;DHT22;12379;49.820;8.648;2023-12-04T04:03:16;-2.90;99.90
24250;DHT22;12379;49.820;8.648;2023-12-04T04:05:41;-2.80;99.90
24250;DHT22;12379;49.820;8.648;2023-12-04T04:08:07;-2.70;99.90
24250;DHT22;12379;49.820;8.648;2023-12-04T04:10:33;-2.80;99.90
24250;DHT22;12379;49.820;8.648;2023-12-04T04:12:59;-2.70;99.90
24250;DHT22;12379;49.820;8.648;2023-12-04T04:15:25;-2.70;99.90
24250;DHT22;12379;49.820;8.648;2023-12-04T04:17:51;-2.70;99.90
24250;DHT22;12379;49.820;8.648;2023-12-04T04:20:17;-2.70;99.90
24250;DHT22;12379;49.820;8.648;2023-12-04T04:22:43;-2.70;99.90
24250;DHT22;12379;49.820;8.648;2023-12-04T04:25:09;-2.80;99.90
24250;DHT22;12379;49.820;8.648;2023-12-04T04:27:35;-2.80;99.90
24250;DHT22;12379;49.820;8.648;2023-12-04T04:30:02;-2.80;99.90
24250;DHT22;12379;49.820;8.648;2023-12-04T04:32:28;-2.80;99.90
24250;DHT22;12379;49.820;8.648;2023-12-04T04:34:53;-2.70;99.90
24250;DHT22;12379;49.820;8.648;2023-12-04T04:37:22;-2.70;99.90
24250;DHT22;12379;49.820;8.648;2023-12-04T04:39:47;-2.60;99.90
24250;DHT22;12379;49.820;8.648;2023-12-04T04:42:14;-2.60;99.90
24250;DHT22;12379;49.820;8.648;2023-12-04T04:44:39;-2.60;99.90
24250;DHT22;12379;49.820;8.648;2023-12-04T04:47:05;-2.50;99.90
24250;DHT22;12379;49.820;8.648;2023-12-04T04:49:31;-2.50;99.90
24250;DHT22;12379;49.820;8.648;2023-12-04T04:51:56;-2.50;99.90
24250;DHT22;12379;49.820;8.648;2023-12-04T04:54:22;-2.50;99.90
24250;DHT22;12379;49.820;8.648;2023-12-04T04:56:47;-2.50;99.90
24250;DHT22;12379;49.820;8.648;2023-12-04T04:59:13;-2.60;99.90
24250;DHT22;12379;49.820;8.648;2023-12-04T05:01:38;-2.60;99.90
24250;DHT22;12379;49.820;8.648;2023-12-04T05:04:04;-2.60;99.90
24250;DHT22;12379;49.820;8.648;2023-12-04T05:06:29;-2.60;99.90
24250;DHT22;12379;49.820;8.648;2023-12-04T05:08:55;-2.60;99.90
24250;DHT22;12379;49.820;8.648;2023-12-04T05:11:21;-2.50;99.90
24250;DHT22;12379;49.820;8.648;2023-12-04T05:13:47;-2.50;99.90
24250;DHT22;12379;49.820;8.648;2023-12-04T05:16:12;-2.60;99.90
24250;DHT22;12379;49.820;8.648;2023-12-04T05:18:38;-2.50;99.90
24250;DHT22;12379;49.820;8.648;2023-12-04T05:21:08;-2.60;99.90
24250;DHT22;12379;49.820;8.648;2023-12-04T05:23:34;-2.50;99.90
24250;DHT22;12379;49.820;8.648;2023-12-04T05:26:00;-2.60;99.90
24250;DHT22;12379;49.820;8.648;2023-12-04T05:28:25;-2.60;99.90
24250;DHT22;12379;49.820;8.648;2023-12-04T05:30:51;-2.60;99.90
24250;DHT22;12379;49.820;8.648;2023-12-04T05:33:16;-2.60;99.90
24250;DHT22;12379;49.820;8.648;2023-12-04T05:35:42;-2.50;99.90
24250;DHT22;12379;49.820;8.648;2023-12-04T05:38:08;-2.50;99.90
24250;DHT22;12379;49.820;8.648;2023-12-04T05:40:34;-2.60;99.90
24250;DHT22;12379;49.820;8.648;2023-12-04T05:42:59;-2.50;99.90
24250;DHT22;12379;49.820;8.648;2023-12-04T05:45:25;-2.50;99.90
24250;DHT22;12379;49.820;8.648;2023-12-04T05:47:50;-2.50;99.90
24250;DHT22;12379;49.820;8.648;2023-12-04T05:50:18;-2.60;99.90
24250;DHT22;12379;49.820;8.648;2023-12-04T05:52:44;-2.60;99.90
24250;DHT22;12379;49.820;8.648;2023-12-04T05:55:10;-2.60;99.90
24250;DHT22;12379;49.820;8.648;2023-12-04T05:57:37;-2.60;99.90
24250;DHT22;12379;49.820;8.648;2023-12-04T06:00:04;-2.60;99.90
24250;DHT22;12379;49.820;8.648;2023-12-04T06:02:31;-2.60;99.90
24250;DHT22;12379;49.820;8.648;2023-12-04T06:04:57;-2.60;99.90
24250;DHT22;12379;49.820;8.648;2023-12-04T06:07:23;-2.60;99.90
24250;DHT22;12379;49.820;8.648;2023-12-04T06:09:48;-2.50;99.90
24250;DHT22;12379;49.820;8.648;2023-12-04T06:12:14;-2.50;99.90
24250;DHT22;12379;49.820;8.648;2023-12-04T06:14:40;-2.40;99.90
24250;DHT22;12379;49.820;8.648;2023-12-04T06:17:05;-2.30;99.90
24250;DHT22;12379;49.820;8.648;2023-12-04T06:19:32;-2.30;99.90
24250;DHT22;12379;49.820;8.648;2023-12-04T06:21:57;-2.40;99.90
24250;DHT22;12379;49.820;8.648;2023-12-04T06:24:23;-2.50;99.90
24250;DHT22;12379;49.820;8.648;2023-12-04T06:26:50;-2.40;99.90
24250;DHT22;12379;49.820;8.648;2023-12-04T06:29:17;-2.40;99.90
24250;DHT22;12379;49.820;8.648;2023-12-04T06:31:43;-2.40;99.90
24250;DHT22;12379;49.820;8.648;2023-12-04T06:34:09;-2.30;99.90
24250;DHT22;12379;49.820;8.648;2023-12-04T06:36:38;-2.30;99.90
24250;DHT22;12379;49.820;8.648;2023-12-04T06:39:09;-2.40;99.90
24250;DHT22;12379;49.820;8.648;2023-12-04T06:41:35;-2.50;99.90
24250;DHT22;12379;49.820;8.648;2023-12-04T06:44:01;-2.40;99.90
24250;DHT22;12379;49.820;8.648;2023-12-04T06:46:28;-2.40;99.90
24250;DHT22;12379;49.820;8.648;2023-12-04T06:48:57;-2.40;99.90
24250;DHT22;12379;49.820;8.648;2023-12-04T06:51:24;-2.40;99.90
24250;DHT22;12379;49.820;8.648;2023-12-04T06:53:50;-2.40;99.90
24250;DHT22;12379;49.820;8.648;2023-12-04T06:56:15;-2.30;99.90
24250;DHT22;12379;49.820;8.648;2023-12-04T06:58:41;-2.40;99.90
24250;DHT22;12379;49.820;8.648;2023-12-04T07:01:06;-2.40;99.90
24250;DHT22;12379;49.820;8.648;2023-12-04T07:03:32;-2.40;99.90
24250;DHT22;12379;49.820;8.648;2023-12-04T07:05:58;-2.40;99.90
24250;DHT22;12379;49.820;8.648;2023-12-04T07:08:24;-2.50;99.90
24250;DHT22;12379;49.820;8.648;2023-12-04T07:10:50;-2.40;99.90
24250;DHT22;12379;49.820;8.648;2023-12-04T07:13:16;-2.40;99.90
24250;DHT22;12379;49.820;8.648;2023-12-04T07:15:41;-2.40;99.90
24250;DHT22;12379;49.820;8.648;2023-12-04T07:18:07;-2.30;99.90
24250;DHT22;12379;49.820;8.648;2023-12-04T07:20:32;-2.20;99.90
24250;DHT22;12379;49.820;8.648;2023-12-04T07:22:58;-2.20;99.90
24250;DHT22;12379;49.820;8.648;2023-12-04T07:25:24;-2.20;99.90
24250;DHT22;12379;49.820;8.648;2023-12-04T07:27:50;-2.20;99.90
24250;DHT22;12379;49.820;8.648;2023-12-04T07:30:15;-2.10;99.90
24250;DHT22;12379;49.820;8.648;2023-12-04T07:32:41;-2.10;99.90
24250;DHT22;12379;49.820;8.648;2023-12-04T07:35:07;-2.00;99.90
24250;DHT22;12379;49.820;8.648;2023-12-04T07:37:33;-2.00;99.90
24250;DHT22;12379;49.820;8.648;2023-12-04T07:39:58;-1.90;99.90
24250;DHT22;12379;49.820;8.648;2023-12-04T07:42:24;-1.80;99.90
24250;DHT22;12379;49.820;8.648;2023-12-04T07:44:49;-1.80;99.90
24250;DHT22;12379;49.820;8.648;2023-12-04T07:47:15;-1.70;99.90
24250;DHT22;12379;49.820;8.648;2023-12-04T07:49:41;-1.70;99.90
24250;DHT22;12379;49.820;8.648;2023-12-04T07:52:07;-1.60;99.90
24250;DHT22;12379;49.820;8.648;2023-12-04T07:54:33;-1.60;99.90
24250;DHT22;12379;49.820;8.648;2023-12-04T07:56:59;-1.60;99.90
24250;DHT22;12379;49.820;8.648;2023-12-04T07:59:25;-1.50;99.90
24250;DHT22;12379;49.820;8.648;2023-12-04T08:01:51;-1.50;99.90
24250;DHT22;12379;49.820;8.648;2023-12-04T08:04:17;-1.50;99.90
24250;DHT22;12379;49.820;8.648;2023-12-04T08:06:42;-1.40;99.90
24250;DHT22;12379;49.820;8.648;2023-12-04T08:09:08;-1.30;99.90
24250;DHT22;12379;49.820;8.648;2023-12-04T08:11:35;-1.10;99.90
24250;DHT22;12379;49.820;8.648;2023-12-04T08:14:01;-0.90;99.90
24250;DHT22;12379;49.820;8.648;2023-12-04T08:16:27;-0.80;99.90
24250;DHT22;12379;49.820;8.648;2023-12-04T08:18:54;-0.90;99.90
24250;DHT22;12379;49.820;8.648;2023-12-04T08:21:20;-1.00;99.90
24250;DHT22;12379;49.820;8.648;2023-12-04T08:23:45;-1.00;99.90
24250;DHT22;12379;49.820;8.648;2023-12-04T08:26:11;-1.10;99.90
24250;DHT22;12379;49.820;8.648;2023-12-04T08:28:36;-1.10;99.90
24250;DHT22;12379;49.820;8.648;2023-12-04T08:31:09;-1.10;99.90
24250;DHT22;12379;49.820;8.648;2023-12-04T08:33:35;-1.00;99.90
24250;DHT22;12379;49.820;8.648;2023-12-04T08:36:01;-1.00;99.90
24250;DHT22;12379;49.820;8.648;2023-12-04T08:38:26;-1.00;99.90
24250;DHT22;12379;49.820;8.648;2023-12-04T08:40:53;-1.00;99.90
24250;DHT22;12379;49.820;8.648;2023-12-04T08:43:18;-1.00;99.90
24250;DHT22;12379;49.820;8.648;2023-12-04T08:45:45;-1.00;99.90
24250;DHT22;12379;49.820;8.648;2023-12-04T08:48:11;-1.00;99.90
24250;DHT22;12379;49.820;8.648;2023-12-04T08:50:36;-1.00;99.90
24250;DHT22;12379;49.820;8.648;2023-12-04T08:53:03;-1.20;99.90
24250;DHT22;12379;49.820;8.648;2023-12-04T08:55:29;-1.10;99.90
24250;DHT22;12379;49.820;8.648;2023-12-04T08:57:54;-0.90;99.90
24250;DHT22;12379;49.820;8.648;2023-12-04T09:00:20;-0.70;99.90
24250;DHT22;12379;49.820;8.648;2023-12-04T09:02:47;-0.80;99.90
24250;DHT22;12379;49.820;8.648;2023-12-04T09:05:13;-0.80;99.90
24250;DHT22;12379;49.820;8.648;2023-12-04T09:07:39;-0.70;99.90
24250;DHT22;12379;49.820;8.648;2023-12-04T09:10:05;-0.70;99.90
24250;DHT22;12379;49.820;8.648;2023-12-04T09:12:30;-0.70;99.90
24250;DHT22;12379;49.820;8.648;2023-12-04T09:14:56;-0.70;99.90
24250;DHT22;12379;49.820;8.648;2023-12-04T09:17:22;-0.40;99.90
24250;DHT22;12379;49.820;8.648;2023-12-04T09:19:47;-0.30;99.90
24250;DHT22;12379;49.820;8.648;2023-12-04T09:22:13;-0.20;99.90
24250;DHT22;12379;49.820;8.648;2023-12-04T09:24:38;-0.10;99.90
24250;DHT22;12379;49.820;8.648;2023-12-04T09:27:04;0.10;99.90
24250;DHT22;12379;49.820;8.648;2023-12-04T09:29:32;0.00;99.90
24250;DHT22;12379;49.820;8.648;2023-12-04T09:31:58;-0.10;99.90
24250;DHT22;12379;49.820;8.648;2023-12-04T09:34:23;-0.10;99.90
24250;DHT22;12379;49.820;8.648;2023-12-04T09:36:48;-0.20;99.90
24250;DHT22;12379;49.820;8.648;2023-12-04T09:39:14;-0.40;99.90
24250;DHT22;12379;49.820;8.648;2023-12-04T09:41:42;-0.60;99.90
24250;DHT22;12379;49.820;8.648;2023-12-04T09:44:08;-0.70;99.90
24250;DHT22;12379;49.820;8.648;2023-12-04T09:46:34;-0.60;99.90
24250;DHT22;12379;49.820;8.648;2023-12-04T09:49:00;-0.60;99.90
24250;DHT22;12379;49.820;8.648;2023-12-04T09:51:27;-0.60;99.90
24250;DHT22;12379;49.820;8.648;2023-12-04T09:53:53;-0.50;99.90
24250;DHT22;12379;49.820;8.648;2023-12-04T09:56:22;-0.30;99.90
24250;DHT22;12379;49.820;8.648;2023-12-04T09:59:00;-0.30;99.90
24250;DHT22;12379;49.820;8.648;2023-12-04T10:01:28;-0.30;99.90
24250;DHT22;12379;49.820;8.648;2023-12-04T10:03:56;-0.40;99.90
24250;DHT22;12379;49.820;8.648;2023-12-04T10:06:26;-0.50;99.90
24250;DHT22;12379;49.820;8.648;2023-12-04T10:08:53;-0.60;99.90
24250;DHT22;12379;49.820;8.648;2023-12-04T10:11:20;-0.70;99.90
24250;DHT22;12379;49.820;8.648;2023-12-04T10:13:46;-0.80;99.90
24250;DHT22;12379;49.820;8.648;2023-12-04T10:16:12;-0.90;99.90
24250;DHT22;12379;49.820;8.648;2023-12-04T10:18:37;-0.90;99.90
24250;DHT22;12379;49.820;8.648;2023-12-04T10:21:03;-0.70;99.90
24250;DHT22;12379;49.820;8.648;2023-12-04T10:23:40;-0.60;99.90
24250;DHT22;12379;49.820;8.648;2023-12-04T10:26:06;-0.60;99.90
24250;DHT22;12379;49.820;8.648;2023-12-04T10:28:36;-0.40;99.90
24250;DHT22;12379;49.820;8.648;2023-12-04T10:31:02;-0.20;99.90
24250;DHT22;12379;49.820;8.648;2023-12-04T10:33:31;0.10;99.90
24250;DHT22;12379;49.820;8.648;2023-12-04T10:35:57;0.20;99.90
24250;DHT22;12379;49.820;8.648;2023-12-04T10:38:22;0.10;99.90
24250;DHT22;12379;49.820;8.648;2023-12-04T10:40:48;-0.20;99.90
24250;DHT22;12379;49.820;8.648;2023-12-04T10:43:23;-0.20;99.90
24250;DHT22;12379;49.820;8.648;2023-12-04T10:45:52;-0.20;99.90
24250;DHT22;12379;49.820;8.648;2023-12-04T10:48:19;-0.20;99.90
24250;DHT22;12379;49.820;8.648;2023-12-04T10:50:47;-0.10;99.90
24250;DHT22;12379;49.820;8.648;2023-12-04T10:53:14;0.30;99.90
24250;DHT22;12379;49.820;8.648;2023-12-04T10:55:41;0.10;99.90
24250;DHT22;12379;49.820;8.648;2023-12-04T10:58:12;0.10;99.90
24250;DHT22;12379;49.820;8.648;2023-12-04T11:00:46;0.10;99.90
24250;DHT22;12379;49.820;8.648;2023-12-04T11:03:28;0.10;99.90
24250;DHT22;12379;49.820;8.648;2023-12-04T11:06:00;0.10;99.90
24250;DHT22;12379;49.820;8.648;2023-12-04T11:08:28;0.20;99.90
24250;DHT22;12379;49.820;8.648;2023-12-04T11:11:12;0.00;99.90
24250;DHT22;12379;49.820;8.648;2023-12-04T11:13:41;0.10;99.90
24250;DHT22;12379;49.820;8.648;2023-12-04T11:16:20;0.10;99.90
24250;DHT22;12379;49.820;8.648;2023-12-04T11:18:51;0.20;99.90
24250;DHT22;12379;49.820;8.648;2023-12-04T11:21:20;0.20;99.90
24250;DHT22;12379;49.820;8.648;2023-12-04T11:23:47;0.20;99.90
24250;DHT22;12379;49.820;8.648;2023-12-04T11:26:13;0.10;99.90
24250;DHT22;12379;49.820;8.648;2023-12-04T11:28:40;0.00;99.90
24250;DHT22;12379;49.820;8.648;2023-12-04T11:31:06;-0.10;99.90
24250;DHT22;12379;49.820;8.648;2023-12-04T11:33:36;-0.20;99.90
24250;DHT22;12379;49.820;8.648;2023-12-04T11:36:12;-0.20;99.90
24250;DHT22;12379;49.820;8.648;2023-12-04T11:38:38;-0.20;99.90
24250;DHT22;12379;49.820;8.648;2023-12-04T11:41:25;-0.30;99.90
24250;DHT22;12379;49.820;8.648;2023-12-04T11:43:51;-0.40;99.90
24250;DHT22;12379;49.820;8.648;2023-12-04T11:46:24;-0.40;99.90
24250;DHT22;12379;49.820;8.648;2023-12-04T11:48:53;-0.30;99.90
24250;DHT22;12379;49.820;8.648;2023-12-04T11:54:04;-0.10;99.90
24250;DHT22;12379;49.820;8.648;2023-12-04T11:56:32;-0.20;99.90
24250;DHT22;12379;49.820;8.648;2023-12-04T11:59:05;-0.20;99.90
24250;DHT22;12379;49.820;8.648;2023-12-04T12:01:37;-0.10;99.90
24250;DHT22;12379;49.820;8.648;2023-12-04T12:04:06;-0.10;99.90
24250;DHT22;12379;49.820;8.648;2023-12-04T12:06:32;0.20;99.90
24250;DHT22;12379;49.820;8.648;2023-12-04T12:08:57;0.20;99.90
24250;DHT22;12379;49.820;8.648;2023-12-04T12:11:24;0.30;99.90
24250;DHT22;12379;49.820;8.648;2023-12-04T12:13:50;0.10;99.90
24250;DHT22;12379;49.820;8.648;2023-12-04T12:16:17;0.20;99.90
24250;DHT22;12379;49.820;8.648;2023-12-04T12:18:43;0.40;99.90
24250;DHT22;12379;49.820;8.648;2023-12-04T12:21:08;0.40;99.90
24250;DHT22;12379;49.820;8.648;2023-12-04T12:23:34;0.40;99.90
24250;DHT22;12379;49.820;8.648;2023-12-04T12:26:00;0.50;99.90
24250;DHT22;12379;49.820;8.648;2023-12-04T12:28:25;0.50;99.90
24250;DHT22;12379;49.820;8.648;2023-12-04T12:30:51;0.50;99.90
24250;DHT22;12379;49.820;8.648;2023-12-04T12:33:20;0.50;99.90
24250;DHT22;12379;49.820;8.648;2023-12-04T12:35:47;0.50;99.90
24250;DHT22;12379;49.820;8.648;2023-12-04T12:38:12;0.50;99.90
24250;DHT22;12379;49.820;8.648;2023-12-04T12:40:38;0.50;99.90
24250;DHT22;12379;49.820;8.648;2023-12-04T12:43:08;0.50;99.90
24250;DHT22;12379;49.820;8.648;2023-12-04T12:45:43;0.60;99.90
24250;DHT22;12379;49.820;8.648;2023-12-04T12:48:16;0.50;99.90
24250;DHT22;12379;49.820;8.648;2023-12-04T12:50:46;0.60;99.90
24250;DHT22;12379;49.820;8.648;2023-12-04T12:53:13;0.60;99.90
24250;DHT22;12379;49.820;8.648;2023-12-04T12:55:42;0.70;99.90
24250;DHT22;12379;49.820;8.648;2023-12-04T12:58:12;0.70;99.90
24250;DHT22;12379;49.820;8.648;2023-12-04T13:00:46;0.50;99.90
24250;DHT22;12379;49.820;8.648;2023-12-04T13:03:16;0.70;99.90
24250;DHT22;12379;49.820;8.648;2023-12-04T13:05:42;0.70;99.90
24250;DHT22;12379;49.820;8.648;2023-12-04T13:08:07;0.70;99.90
24250;DHT22;12379;49.820;8.648;2023-12-04T13:10:33;0.80;99.90
24250;DHT22;12379;49.820;8.648;2023-12-04T13:12:58;0.80;99.90
24250;DHT22;12379;49.820;8.648;2023-12-04T13:15:28;0.90;99.90
24250;DHT22;12379;49.820;8.648;2023-12-04T13:17:53;0.90;99.90
24250;DHT22;12379;49.820;8.648;2023-12-04T13:20:19;0.90;99.90
24250;DHT22;12379;49.820;8.648;2023-12-04T13:22:44;0.90;99.90
24250;DHT22;12379;49.820;8.648;2023-12-04T13:25:10;0.90;99.90
24250;DHT22;12379;49.820;8.648;2023-12-04T13:27:37;0.90;99.90
24250;DHT22;12379;49.820;8.648;2023-12-04T13:30:11;0.90;99.90
24250;DHT22;12379;49.820;8.648;2023-12-04T13:32:37;0.90;99.90
24250;DHT22;12379;49.820;8.648;2023-12-04T13:35:04;0.90;99.90
24250;DHT22;12379;49.820;8.648;2023-12-04T13:37:33;0.90;99.90
24250;DHT22;12379;49.820;8.648;2023-12-04T13:40:02;0.90;99.90
24250;DHT22;12379;49.820;8.648;2023-12-04T13:42:34;1.00;99.90
24250;DHT22;12379;49.820;8.648;2023-12-04T13:45:19;1.00;99.90
24250;DHT22;12379;49.820;8.648;2023-12-04T13:47:48;1.10;99.90
24250;DHT22;12379;49.820;8.648;2023-12-04T13:50:14;1.00;99.90
24250;DHT22;12379;49.820;8.648;2023-12-04T13:52:39;1.00;99.90
24250;DHT22;12379;49.820;8.648;2023-12-04T13:55:09;1.00;99.90
24250;DHT22;12379;49.820;8.648;2023-12-04T13:57:45;1.00;99.90
24250;DHT22;12379;49.820;8.648;2023-12-04T14:00:34;0.90;99.90
24250;DHT22;12379;49.820;8.648;2023-12-04T14:03:00;0.90;99.90
24250;DHT22;12379;49.820;8.648;2023-12-04T14:05:36;0.90;99.90
24250;DHT22;12379;49.820;8.648;2023-12-04T14:08:01;0.70;99.90
24250;DHT22;12379;49.820;8.648;2023-12-04T14:10:29;0.70;99.90
24250;DHT22;12379;49.820;8.648;2023-12-04T14:12:55;0.50;99.90
24250;DHT22;12379;49.820;8.648;2023-12-04T14:15:21;0.60;99.90
24250;DHT22;12379;49.820;8.648;2023-12-04T14:17:46;0.60;99.90
24250;DHT22;12379;49.820;8.648;2023-12-04T14:20:12;0.40;99.90
24250;DHT22;12379;49.820;8.648;2023-12-04T14:22:44;0.40;99.90
24250;DHT22;12379;49.820;8.648;2023-12-04T14:25:13;0.40;99.90
24250;DHT22;12379;49.820;8.648;2023-12-04T14:27:39;0.30;99.90
24250;DHT22;12379;49.820;8.648;2023-12-04T14:30:07;0.20;99.90
24250;DHT22;12379;49.820;8.648;2023-12-04T14:32:34;0.20;99.90
24250;DHT22;12379;49.820;8.648;2023-12-04T14:34:59;0.30;99.90
24250;DHT22;12379;49.820;8.648;2023-12-04T14:37:26;0.20;99.90
24250;DHT22;12379;49.820;8.648;2023-12-04T14:39:51;0.20;99.90
24250;DHT22;12379;49.820;8.648;2023-12-04T14:42:17;0.20;99.90
24250;DHT22;12379;49.820;8.648;2023-12-04T14:44:42;0.20;99.90
24250;DHT22;12379;49.820;8.648;2023-12-04T14:47:08;0.20;99.90
24250;DHT22;12379;49.820;8.648;2023-12-04T14:49:34;0.20;99.90
24250;DHT22;12379;49.820;8.648;2023-12-04T14:52:00;0.20;99.90
24250;DHT22;12379;49.820;8.648;2023-12-04T14:54:26;0.20;99.90
24250;DHT22;12379;49.820;8.648;2023-12-04T14:57:19;0.30;99.90
24250;DHT22;12379;49.820;8.648;2023-12-04T14:59:45;0.30;99.90
24250;DHT22;12379;49.820;8.648;2023-12-04T15:02:29;0.20;99.90
24250;DHT22;12379;49.820;8.648;2023-12-04T15:05:15;0.20;99.90
24250;DHT22;12379;49.820;8.648;2023-12-04T15:07:59;0.20;99.90
24250;DHT22;12379;49.820;8.648;2023-12-04T15:10:42;0.20;99.90
24250;DHT22;12379;49.820;8.648;2023-12-04T15:13:43;0.20;99.90
24250;DHT22;12379;49.820;8.648;2023-12-04T15:16:30;0.10;99.90
24250;DHT22;12379;49.820;8.648;2023-12-04T15:19:11;0.10;99.90
24250;DHT22;12379;49.820;8.648;2023-12-04T15:21:54;0.00;99.90
24250;DHT22;12379;49.820;8.648;2023-12-04T15:24:20;0.00;99.90
24250;DHT22;12379;49.820;8.648;2023-12-04T15:26:46;0.00;99.90
24250;DHT22;12379;49.820;8.648;2023-12-04T15:29:11;0.10;99.90
24250;DHT22;12379;49.820;8.648;2023-12-04T15:31:37;0.10;99.90
24250;DHT22;12379;49.820;8.648;2023-12-04T15:34:05;0.10;99.90
24250;DHT22;12379;49.820;8.648;2023-12-04T15:36:31;0.00;99.90